sensor_id;sensor_type;location;lat;lon;timestamp;temperature;humidity
76577;DHT22;65441;44.748;37.600;2023-04-03T00:01:31;10.44;89.79
76577;DHT22;65441;44.748;37.600;2023-04-03T00:04:00;10.44;89.87
76577;DHT22;65441;44.748;37.600;2023-04-03T00:06:29;10.46;89.45
76577;DHT22;65441;44.748;37.600;2023-04-03T00:08:58;10.51;89.40
76577;DHT22;65441;44.748;37.600;2023-04-03T00:11:28;10.53;88.98
76577;DHT22;65441;44.748;37.600;2023-04-03T00:13:56;10.53;89.28
76577;DHT22;65441;44.748;37.600;2023-04-03T00:16:25;10.55;89.34
76577;DHT22;65441;44.748;37.600;2023-04-03T00:18:54;10.64;88.70
76577;DHT22;65441;44.748;37.600;2023-04-03T00:21:22;10.64;88.80
76577;DHT22;65441;44.748;37.600;2023-04-03T00:23:51;10.63;88.89
76577;DHT22;65441;44.748;37.600;2023-04-03T00:26:23;10.64;88.77
76577;DHT22;65441;44.748;37.600;2023-04-03T00:28:53;10.70;88.78
76577;DHT22;65441;44.748;37.600;2023-04-03T00:31:22;10.69;88.95
76577;DHT22;65441;44.748;37.600;2023-04-03T00:33:50;10.68;88.99
76577;DHT22;65441;44.748;37.600;2023-04-03T00:36:19;10.65;89.00
76577;DHT22;65441;44.748;37.600;2023-04-03T00:38:48;10.66;89.21
76577;DHT22;65441;44.748;37.600;2023-04-03T00:41:17;10.66;89.12
76577;DHT22;65441;44.748;37.600;2023-04-03T00:43:45;10.73;88.78
76577;DHT22;65441;44.748;37.600;2023-04-03T00:46:15;10.77;88.83
76577;DHT22;65441;44.748;37.600;2023-04-03T00:48:46;10.75;89.07
76577;DHT22;65441;44.748;37.600;2023-04-03T00:51:19;10.77;89.28
76577;DHT22;65441;44.748;37.600;2023-04-03T00:53:51;10.75;89.13
76577;DHT22;65441;44.748;37.600;2023-04-03T00:56:23;10.77;88.94
76577;DHT22;65441;44.748;37.600;2023-04-03T00:58:58;10.79;89.08
76577;DHT22;65441;44.748;37.600;2023-04-03T01:01:30;10.81;89.18
76577;DHT22;65441;44.748;37.600;2023-04-03T01:04:00;10.82;89.14
76577;DHT22;65441;44.748;37.600;2023-04-03T01:06:33;10.86;89.00
76577;DHT22;65441;44.748;37.600;2023-04-03T01:09:07;10.85;89.50
76577;DHT22;65441;44.748;37.600;2023-04-03T01:11:36;10.78;90.34
76577;DHT22;65441;44.748;37.600;2023-04-03T01:14:05;10.78;90.21
76577;DHT22;65441;44.748;37.600;2023-04-03T01:16:35;10.78;90.47
76577;DHT22;65441;44.748;37.600;2023-04-03T01:19:05;10.73;90.88
76577;DHT22;65441;44.748;37.600;2023-04-03T01:21:59;10.74;90.76
76577;DHT22;65441;44.748;37.600;2023-04-03T01:24:33;10.77;90.69
76577;DHT22;65441;44.748;37.600;2023-04-03T01:27:06;10.78;90.72
76577;DHT22;65441;44.748;37.600;2023-04-03T01:29:35;10.80;90.61
76577;DHT22;65441;44.748;37.600;2023-04-03T01:32:07;10.81;90.91
76577;DHT22;65441;44.748;37.600;2023-04-03T01:34:35;10.83;90.78
76577;DHT22;65441;44.748;37.600;2023-04-03T01:37:05;10.88;90.53
76577;DHT22;65441;44.748;37.600;2023-04-03T01:39:33;10.89;90.32
76577;DHT22;65441;44.748;37.600;2023-04-03T01:42:03;10.94;90.14
76577;DHT22;65441;44.748;37.600;2023-04-03T01:44:37;10.94;90.44
76577;DHT22;65441;44.748;37.600;2023-04-03T01:47:07;10.95;90.32
76577;DHT22;65441;44.748;37.600;2023-04-03T01:49:36;10.92;90.59
76577;DHT22;65441;44.748;37.600;2023-04-03T01:52:06;10.96;90.19
76577;DHT22;65441;44.748;37.600;2023-04-03T01:54:34;10.96;90.29
76577;DHT22;65441;44.748;37.600;2023-04-03T01:57:03;11.00;90.25
76577;DHT22;65441;44.748;37.600;2023-04-03T01:59:32;10.98;90.43
76577;DHT22;65441;44.748;37.600;2023-04-03T02:02:01;10.94;90.78
76577;DHT22;65441;44.748;37.600;2023-04-03T02:04:31;10.94;90.68
76577;DHT22;65441;44.748;37.600;2023-04-03T02:06:59;11.00;90.38
76577;DHT22;65441;44.748;37.600;2023-04-03T02:09:28;11.04;90.24
76577;DHT22;65441;44.748;37.600;2023-04-03T02:11:57;10.94;90.89
76577;DHT22;65441;44.748;37.600;2023-04-03T02:14:25;10.90;91.24
76577;DHT22;65441;44.748;37.600;2023-04-03T02:16:54;10.89;91.42
76577;DHT22;65441;44.748;37.600;2023-04-03T02:19:23;10.73;92.50
76577;DHT22;65441;44.748;37.600;2023-04-03T02:21:53;10.70;92.73
76577;DHT22;65441;44.748;37.600;2023-04-03T02:24:22;10.68;92.91
76577;DHT22;65441;44.748;37.600;2023-04-03T02:26:51;10.67;93.21
76577;DHT22;65441;44.748;37.600;2023-04-03T02:29:20;10.66;93.37
76577;DHT22;65441;44.748;37.600;2023-04-03T02:31:49;10.69;93.37
76577;DHT22;65441;44.748;37.600;2023-04-03T02:34:18;10.79;92.74
76577;DHT22;65441;44.748;37.600;2023-04-03T02:36:47;10.75;92.92
76577;DHT22;65441;44.748;37.600;2023-04-03T02:39:19;10.67;93.63
76577;DHT22;65441;44.748;37.600;2023-04-03T02:41:48;10.68;93.96
76577;DHT22;65441;44.748;37.600;2023-04-03T02:44:23;10.65;94.32
76577;DHT22;65441;44.748;37.600;2023-04-03T02:46:53;10.68;94.10
76577;DHT22;65441;44.748;37.600;2023-04-03T02:49:21;10.70;93.88
76577;DHT22;65441;44.748;37.600;2023-04-03T02:51:51;10.73;93.70
76577;DHT22;65441;44.748;37.600;2023-04-03T02:54:21;10.81;93.32
76577;DHT22;65441;44.748;37.600;2023-04-03T02:56:54;10.68;94.28
76577;DHT22;65441;44.748;37.600;2023-04-03T02:59:23;10.68;94.23
76577;DHT22;65441;44.748;37.600;2023-04-03T03:01:52;10.63;94.29
76577;DHT22;65441;44.748;37.600;2023-04-03T03:04:21;10.68;93.84
76577;DHT22;65441;44.748;37.600;2023-04-03T03:06:50;10.62;94.49
76577;DHT22;65441;44.748;37.600;2023-04-03T03:09:21;10.65;94.46
76577;DHT22;65441;44.748;37.600;2023-04-03T03:11:49;10.67;94.13
76577;DHT22;65441;44.748;37.600;2023-04-03T03:14:18;10.68;94.21
76577;DHT22;65441;44.748;37.600;2023-04-03T03:16:47;10.66;94.09
76577;DHT22;65441;44.748;37.600;2023-04-03T03:19:16;10.62;94.65
76577;DHT22;65441;44.748;37.600;2023-04-03T03:21:45;10.64;94.36
76577;DHT22;65441;44.748;37.600;2023-04-03T03:24:13;10.64;94.52
76577;DHT22;65441;44.748;37.600;2023-04-03T03:26:44;10.70;93.86
76577;DHT22;65441;44.748;37.600;2023-04-03T03:29:13;10.73;93.88
76577;DHT22;65441;44.748;37.600;2023-04-03T03:31:42;10.69;94.01
76577;DHT22;65441;44.748;37.600;2023-04-03T03:34:10;10.70;94.07
76577;DHT22;65441;44.748;37.600;2023-04-03T03:36:40;10.68;94.36
76577;DHT22;65441;44.748;37.600;2023-04-03T03:39:09;10.71;94.04
76577;DHT22;65441;44.748;37.600;2023-04-03T03:41:38;10.75;93.43
76577;DHT22;65441;44.748;37.600;2023-04-03T03:44:09;10.77;92.73
76577;DHT22;65441;44.748;37.600;2023-04-03T03:46:38;10.73;93.02
76577;DHT22;65441;44.748;37.600;2023-04-03T03:49:07;10.74;93.18
76577;DHT22;65441;44.748;37.600;2023-04-03T03:51:36;10.72;93.50
76577;DHT22;65441;44.748;37.600;2023-04-03T03:54:05;10.71;93.75
76577;DHT22;65441;44.748;37.600;2023-04-03T03:56:34;10.65;94.12
76577;DHT22;65441;44.748;37.600;2023-04-03T03:59:03;10.65;94.62
76577;DHT22;65441;44.748;37.600;2023-04-03T04:01:34;10.68;94.16
76577;DHT22;65441;44.748;37.600;2023-04-03T04:04:02;10.65;94.23
76577;DHT22;65441;44.748;37.600;2023-04-03T04:06:32;10.72;93.85
76577;DHT22;65441;44.748;37.600;2023-04-03T04:09:05;10.77;94.07
76577;DHT22;65441;44.748;37.600;2023-04-03T04:11:34;10.72;94.04
76577;DHT22;65441;44.748;37.600;2023-04-03T04:14:03;10.80;93.96
76577;DHT22;65441;44.748;37.600;2023-04-03T04:16:33;10.71;93.69
76577;DHT22;65441;44.748;37.600;2023-04-03T04:19:07;10.73;93.72
76577;DHT22;65441;44.748;37.600;2023-04-03T04:21:38;10.67;94.35
76577;DHT22;65441;44.748;37.600;2023-04-03T04:24:09;10.68;94.52
76577;DHT22;65441;44.748;37.600;2023-04-03T04:26:39;10.73;94.36
76577;DHT22;65441;44.748;37.600;2023-04-03T04:29:11;10.73;94.24
76577;DHT22;65441;44.748;37.600;2023-04-03T04:31:41;10.74;94.20
76577;DHT22;65441;44.748;37.600;2023-04-03T04:34:10;10.72;93.91
76577;DHT22;65441;44.748;37.600;2023-04-03T04:36:40;10.70;94.03
76577;DHT22;65441;44.748;37.600;2023-04-03T04:39:09;10.67;94.04
76577;DHT22;65441;44.748;37.600;2023-04-03T04:41:37;10.64;94.20
76577;DHT22;65441;44.748;37.600;2023-04-03T04:44:07;10.60;94.09
76577;DHT22;65441;44.748;37.600;2023-04-03T04:46:36;10.60;94.68
76577;DHT22;65441;44.748;37.600;2023-04-03T04:49:07;10.56;94.36
76577;DHT22;65441;44.748;37.600;2023-04-03T04:51:37;10.60;94.58
76577;DHT22;65441;44.748;37.600;2023-04-03T04:54:05;10.58;94.05
76577;DHT22;65441;44.748;37.600;2023-04-03T04:56:34;10.57;93.95
76577;DHT22;65441;44.748;37.600;2023-04-03T04:59:03;10.60;94.01
76577;DHT22;65441;44.748;37.600;2023-04-03T05:01:32;10.52;93.92
76577;DHT22;65441;44.748;37.600;2023-04-03T05:04:09;10.49;94.35
76577;DHT22;65441;44.748;37.600;2023-04-03T05:06:40;10.43;94.23
76577;DHT22;65441;44.748;37.600;2023-04-03T05:09:14;10.39;94.59
76577;DHT22;65441;44.748;37.600;2023-04-03T05:11:45;10.40;94.27
76577;DHT22;65441;44.748;37.600;2023-04-03T05:14:16;10.42;94.47
76577;DHT22;65441;44.748;37.600;2023-04-03T05:16:45;10.40;93.88
76577;DHT22;65441;44.748;37.600;2023-04-03T05:19:16;10.45;93.87
76577;DHT22;65441;44.748;37.600;2023-04-03T05:21:45;10.42;93.60
76577;DHT22;65441;44.748;37.600;2023-04-03T05:24:16;10.46;93.91
76577;DHT22;65441;44.748;37.600;2023-04-03T05:26:45;10.50;93.90
76577;DHT22;65441;44.748;37.600;2023-04-03T05:29:15;10.55;93.58
76577;DHT22;65441;44.748;37.600;2023-04-03T05:31:43;10.57;92.97
76577;DHT22;65441;44.748;37.600;2023-04-03T05:34:15;10.59;93.56
76577;DHT22;65441;44.748;37.600;2023-04-03T05:36:45;10.58;93.11
76577;DHT22;65441;44.748;37.600;2023-04-03T05:39:14;10.70;93.04
76577;DHT22;65441;44.748;37.600;2023-04-03T05:41:45;10.73;92.42
76577;DHT22;65441;44.748;37.600;2023-04-03T05:44:13;10.75;91.93
76577;DHT22;65441;44.748;37.600;2023-04-03T05:46:45;10.90;91.82
76577;DHT22;65441;44.748;37.600;2023-04-03T05:49:15;10.88;91.70
76577;DHT22;65441;44.748;37.600;2023-04-03T05:51:44;10.93;90.81
76577;DHT22;65441;44.748;37.600;2023-04-03T05:54:26;10.97;90.94
76577;DHT22;65441;44.748;37.600;2023-04-03T05:57:05;11.00;90.44
76577;DHT22;65441;44.748;37.600;2023-04-03T05:59:33;11.05;90.25
76577;DHT22;65441;44.748;37.600;2023-04-03T06:02:02;11.22;90.87
76577;DHT22;65441;44.748;37.600;2023-04-03T06:04:32;11.36;90.25
76577;DHT22;65441;44.748;37.600;2023-04-03T06:07:01;11.45;89.44
76577;DHT22;65441;44.748;37.600;2023-04-03T06:09:30;11.93;89.19
76577;DHT22;65441;44.748;37.600;2023-04-03T06:11:59;12.37;86.45
76577;DHT22;65441;44.748;37.600;2023-04-03T06:14:29;12.62;85.01
76577;DHT22;65441;44.748;37.600;2023-04-03T06:16:58;13.14;84.84
76577;DHT22;65441;44.748;37.600;2023-04-03T06:19:27;13.34;83.46
76577;DHT22;65441;44.748;37.600;2023-04-03T06:21:59;13.31;83.55
76577;DHT22;65441;44.748;37.600;2023-04-03T06:24:27;13.77;81.84
76577;DHT22;65441;44.748;37.600;2023-04-03T06:26:57;13.73;79.75
76577;DHT22;65441;44.748;37.600;2023-04-03T06:29:26;13.92;79.38
76577;DHT22;65441;44.748;37.600;2023-04-03T06:31:55;14.45;78.75
76577;DHT22;65441;44.748;37.600;2023-04-03T06:34:24;14.13;77.21
76577;DHT22;65441;44.748;37.600;2023-04-03T06:36:53;14.33;76.68
76577;DHT22;65441;44.748;37.600;2023-04-03T06:39:23;14.26;78.27
76577;DHT22;65441;44.748;37.600;2023-04-03T06:41:52;14.24;75.61
76577;DHT22;65441;44.748;37.600;2023-04-03T06:44:28;14.17;77.33
76577;DHT22;65441;44.748;37.600;2023-04-03T06:46:57;13.94;77.15
76577;DHT22;65441;44.748;37.600;2023-04-03T06:49:26;13.96;77.32
76577;DHT22;65441;44.748;37.600;2023-04-03T06:51:55;14.52;76.47
76577;DHT22;65441;44.748;37.600;2023-04-03T06:54:25;14.27;74.84
76577;DHT22;65441;44.748;37.600;2023-04-03T06:56:54;14.30;77.20
76577;DHT22;65441;44.748;37.600;2023-04-03T06:59:23;14.01;74.73
76577;DHT22;65441;44.748;37.600;2023-04-03T07:01:52;14.40;74.21
76577;DHT22;65441;44.748;37.600;2023-04-03T07:04:21;14.54;74.07
76577;DHT22;65441;44.748;37.600;2023-04-03T07:06:50;14.60;75.32
76577;DHT22;65441;44.748;37.600;2023-04-03T07:09:19;14.49;74.95
76577;DHT22;65441;44.748;37.600;2023-04-03T07:11:49;14.78;74.47
76577;DHT22;65441;44.748;37.600;2023-04-03T07:14:18;14.62;73.96
76577;DHT22;65441;44.748;37.600;2023-04-03T07:16:48;14.39;74.02
76577;DHT22;65441;44.748;37.600;2023-04-03T07:19:17;14.33;74.69
76577;DHT22;65441;44.748;37.600;2023-04-03T07:21:46;14.72;74.92
76577;DHT22;65441;44.748;37.600;2023-04-03T07:24:14;14.28;75.03
76577;DHT22;65441;44.748;37.600;2023-04-03T07:26:43;14.84;73.57
76577;DHT22;65441;44.748;37.600;2023-04-03T07:29:13;14.54;74.12
76577;DHT22;65441;44.748;37.600;2023-04-03T07:31:42;14.29;75.34
76577;DHT22;65441;44.748;37.600;2023-04-03T07:34:11;14.08;74.92
76577;DHT22;65441;44.748;37.600;2023-04-03T07:36:40;14.52;74.78
76577;DHT22;65441;44.748;37.600;2023-04-03T07:39:09;14.53;73.31
76577;DHT22;65441;44.748;37.600;2023-04-03T07:41:38;14.99;72.93
76577;DHT22;65441;44.748;37.600;2023-04-03T07:44:07;15.00;75.22
76577;DHT22;65441;44.748;37.600;2023-04-03T07:46:38;14.98;71.85
76577;DHT22;65441;44.748;37.600;2023-04-03T07:49:08;14.89;71.03
76577;DHT22;65441;44.748;37.600;2023-04-03T07:51:37;14.89;71.19
76577;DHT22;65441;44.748;37.600;2023-04-03T07:54:07;14.60;72.77
76577;DHT22;65441;44.748;37.600;2023-04-03T07:56:36;14.71;74.15
76577;DHT22;65441;44.748;37.600;2023-04-03T07:59:04;14.66;74.52
76577;DHT22;65441;44.748;37.600;2023-04-03T08:01:33;14.66;73.59
76577;DHT22;65441;44.748;37.600;2023-04-03T08:04:04;14.70;73.56
76577;DHT22;65441;44.748;37.600;2023-04-03T08:06:33;14.73;72.78
76577;DHT22;65441;44.748;37.600;2023-04-03T08:09:03;14.75;74.67
76577;DHT22;65441;44.748;37.600;2023-04-03T08:11:32;14.56;74.59
76577;DHT22;65441;44.748;37.600;2023-04-03T08:14:03;14.50;76.28
76577;DHT22;65441;44.748;37.600;2023-04-03T08:16:35;14.11;76.92
76577;DHT22;65441;44.748;37.600;2023-04-03T08:19:05;13.98;75.56
76577;DHT22;65441;44.748;37.600;2023-04-03T08:21:35;14.19;75.75
76577;DHT22;65441;44.748;37.600;2023-04-03T08:24:04;14.33;75.15
76577;DHT22;65441;44.748;37.600;2023-04-03T08:26:33;14.39;75.69
76577;DHT22;65441;44.748;37.600;2023-04-03T08:29:02;14.96;73.77
76577;DHT22;65441;44.748;37.600;2023-04-03T08:31:31;14.95;77.13
76577;DHT22;65441;44.748;37.600;2023-04-03T08:33:59;15.16;74.25
76577;DHT22;65441;44.748;37.600;2023-04-03T08:36:33;14.89;72.46
76577;DHT22;65441;44.748;37.600;2023-04-03T08:39:04;15.68;71.58
76577;DHT22;65441;44.748;37.600;2023-04-03T08:41:34;15.63;69.82
76577;DHT22;65441;44.748;37.600;2023-04-03T08:44:11;16.37;68.58
76577;DHT22;65441;44.748;37.600;2023-04-03T08:46:52;16.56;66.88
76577;DHT22;65441;44.748;37.600;2023-04-03T08:49:27;15.91;68.04
76577;DHT22;65441;44.748;37.600;2023-04-03T08:52:04;15.70;69.05
76577;DHT22;65441;44.748;37.600;2023-04-03T08:54:37;15.17;70.47
76577;DHT22;65441;44.748;37.600;2023-04-03T08:57:09;15.52;71.08
76577;DHT22;65441;44.748;37.600;2023-04-03T08:59:39;15.25;73.02
76577;DHT22;65441;44.748;37.600;2023-04-03T09:02:22;15.12;70.52
76577;DHT22;65441;44.748;37.600;2023-04-03T09:04:52;14.36;75.11
76577;DHT22;65441;44.748;37.600;2023-04-03T09:07:29;13.85;78.36
76577;DHT22;65441;44.748;37.600;2023-04-03T09:10:00;13.73;78.28
76577;DHT22;65441;44.748;37.600;2023-04-03T09:12:34;13.23;81.07
76577;DHT22;65441;44.748;37.600;2023-04-03T09:15:12;12.91;81.62
76577;DHT22;65441;44.748;37.600;2023-04-03T09:17:53;12.81;82.91
76577;DHT22;65441;44.748;37.600;2023-04-03T09:20:33;12.72;83.26
76577;DHT22;65441;44.748;37.600;2023-04-03T09:23:14;12.37;84.97
76577;DHT22;65441;44.748;37.600;2023-04-03T09:25:45;12.40;85.16
76577;DHT22;65441;44.748;37.600;2023-04-03T09:28:14;12.44;84.39
76577;DHT22;65441;44.748;37.600;2023-04-03T09:30:42;12.25;85.52
76577;DHT22;65441;44.748;37.600;2023-04-03T09:33:12;12.15;86.12
76577;DHT22;65441;44.748;37.600;2023-04-03T09:35:49;11.93;86.67
76577;DHT22;65441;44.748;37.600;2023-04-03T09:38:21;12.12;86.72
76577;DHT22;65441;44.748;37.600;2023-04-03T09:40:50;12.32;84.48
76577;DHT22;65441;44.748;37.600;2023-04-03T09:43:31;11.93;86.62
76577;DHT22;65441;44.748;37.600;2023-04-03T09:46:24;11.78;87.25
76577;DHT22;65441;44.748;37.600;2023-04-03T09:48:56;11.88;86.93
76577;DHT22;65441;44.748;37.600;2023-04-03T09:51:27;11.72;88.01
76577;DHT22;65441;44.748;37.600;2023-04-03T09:53:58;11.75;88.51
76577;DHT22;65441;44.748;37.600;2023-04-03T09:56:29;11.92;86.71
76577;DHT22;65441;44.748;37.600;2023-04-03T09:59:13;11.86;86.58
76577;DHT22;65441;44.748;37.600;2023-04-03T10:01:59;11.88;87.35
76577;DHT22;65441;44.748;37.600;2023-04-03T10:04:37;11.83;88.15
76577;DHT22;65441;44.748;37.600;2023-04-03T10:07:33;11.91;87.48
76577;DHT22;65441;44.748;37.600;2023-04-03T10:10:18;12.14;85.03
76577;DHT22;65441;44.748;37.600;2023-04-03T10:13:04;12.17;85.09
76577;DHT22;65441;44.748;37.600;2023-04-03T10:15:36;12.27;84.71
76577;DHT22;65441;44.748;37.600;2023-04-03T10:18:24;12.37;83.33
76577;DHT22;65441;44.748;37.600;2023-04-03T10:21:00;12.34;84.70
76577;DHT22;65441;44.748;37.600;2023-04-03T10:23:35;12.28;84.47
76577;DHT22;65441;44.748;37.600;2023-04-03T10:26:13;12.42;83.78
76577;DHT22;65441;44.748;37.600;2023-04-03T10:28:48;12.49;83.93
76577;DHT22;65441;44.748;37.600;2023-04-03T10:31:25;12.85;82.63
76577;DHT22;65441;44.748;37.600;2023-04-03T10:34:01;12.59;82.75
76577;DHT22;65441;44.748;37.600;2023-04-03T10:36:41;12.56;83.26
76577;DHT22;65441;44.748;37.600;2023-04-03T10:39:19;12.55;83.94
76577;DHT22;65441;44.748;37.600;2023-04-03T10:42:00;12.62;82.34
76577;DHT22;65441;44.748;37.600;2023-04-03T10:44:38;12.40;83.65
76577;DHT22;65441;44.748;37.600;2023-04-03T10:47:14;12.52;83.32
76577;DHT22;65441;44.748;37.600;2023-04-03T10:49:51;12.44;84.49
76577;DHT22;65441;44.748;37.600;2023-04-03T10:52:28;12.73;84.13
76577;DHT22;65441;44.748;37.600;2023-04-03T10:55:05;12.46;83.10
76577;DHT22;65441;44.748;37.600;2023-04-03T10:57:36;12.37;83.41
76577;DHT22;65441;44.748;37.600;2023-04-03T11:00:13;12.23;85.14
76577;DHT22;65441;44.748;37.600;2023-04-03T11:02:49;12.31;84.64
76577;DHT22;65441;44.748;37.600;2023-04-03T11:05:28;12.35;85.03
76577;DHT22;65441;44.748;37.600;2023-04-03T11:08:04;12.49;83.84
76577;DHT22;65441;44.748;37.600;2023-04-03T11:10:41;12.47;83.01
76577;DHT22;65441;44.748;37.600;2023-04-03T11:13:15;12.42;83.32
76577;DHT22;65441;44.748;37.600;2023-04-03T11:15:46;12.17;85.42
76577;DHT22;65441;44.748;37.600;2023-04-03T11:18:18;12.30;84.33
76577;DHT22;65441;44.748;37.600;2023-04-03T11:20:53;12.31;84.49
76577;DHT22;65441;44.748;37.600;2023-04-03T11:23:26;12.05;83.75
76577;DHT22;65441;44.748;37.600;2023-04-03T11:26:07;12.14;84.71
76577;DHT22;65441;44.748;37.600;2023-04-03T11:28:38;12.12;84.68
76577;DHT22;65441;44.748;37.600;2023-04-03T11:31:16;12.22;85.53
76577;DHT22;65441;44.748;37.600;2023-04-03T11:33:54;12.14;85.32
76577;DHT22;65441;44.748;37.600;2023-04-03T11:36:27;11.96;85.13
76577;DHT22;65441;44.748;37.600;2023-04-03T11:39:01;11.97;85.16
76577;DHT22;65441;44.748;37.600;2023-04-03T11:41:36;11.99;85.32
76577;DHT22;65441;44.748;37.600;2023-04-03T11:44:28;11.87;86.21
76577;DHT22;65441;44.748;37.600;2023-04-03T11:46:59;12.06;85.37
76577;DHT22;65441;44.748;37.600;2023-04-03T11:49:50;12.10;85.13
76577;DHT22;65441;44.748;37.600;2023-04-03T11:52:57;11.97;85.71
76577;DHT22;65441;44.748;37.600;2023-04-03T11:55:58;12.22;86.39
76577;DHT22;65441;44.748;37.600;2023-04-03T11:58:29;12.25;86.61
76577;DHT22;65441;44.748;37.600;2023-04-03T12:01:05;12.47;83.58
76577;DHT22;65441;44.748;37.600;2023-04-03T12:03:56;12.41;85.17
76577;DHT22;65441;44.748;37.600;2023-04-03T12:09:29;12.44;84.17
76577;DHT22;65441;44.748;37.600;2023-04-03T12:12:01;12.60;83.95
76577;DHT22;65441;44.748;37.600;2023-04-03T12:14:49;12.47;84.41
76577;DHT22;65441;44.748;37.600;2023-04-03T12:17:25;12.50;83.61
76577;DHT22;65441;44.748;37.600;2023-04-03T12:19:55;12.46;83.35
76577;DHT22;65441;44.748;37.600;2023-04-03T12:22:25;12.36;83.74
76577;DHT22;65441;44.748;37.600;2023-04-03T12:24:55;12.45;83.74
76577;DHT22;65441;44.748;37.600;2023-04-03T12:27:27;12.62;83.75
76577;DHT22;65441;44.748;37.600;2023-04-03T12:30:04;12.81;83.19
76577;DHT22;65441;44.748;37.600;2023-04-03T12:32:57;12.70;82.94
76577;DHT22;65441;44.748;37.600;2023-04-03T12:35:35;12.58;83.58
76577;DHT22;65441;44.748;37.600;2023-04-03T12:38:15;12.48;82.79
76577;DHT22;65441;44.748;37.600;2023-04-03T12:40:51;12.53;84.41
76577;DHT22;65441;44.748;37.600;2023-04-03T12:43:42;12.25;85.06
76577;DHT22;65441;44.748;37.600;2023-04-03T12:46:15;12.26;84.81
76577;DHT22;65441;44.748;37.600;2023-04-03T12:48:50;12.38;84.03
76577;DHT22;65441;44.748;37.600;2023-04-03T12:51:23;12.56;83.97
76577;DHT22;65441;44.748;37.600;2023-04-03T12:54:00;12.74;83.27
76577;DHT22;65441;44.748;37.600;2023-04-03T12:56:30;12.49;84.16
76577;DHT22;65441;44.748;37.600;2023-04-03T12:59:14;12.41;85.32
76577;DHT22;65441;44.748;37.600;2023-04-03T13:01:44;12.50;86.04
76577;DHT22;65441;44.748;37.600;2023-04-03T13:04:27;12.42;84.27
76577;DHT22;65441;44.748;37.600;2023-04-03T13:06:57;12.52;84.86
76577;DHT22;65441;44.748;37.600;2023-04-03T13:09:27;12.43;85.30
76577;DHT22;65441;44.748;37.600;2023-04-03T13:11:59;12.18;85.63
76577;DHT22;65441;44.748;37.600;2023-04-03T13:14:29;12.45;85.42
76577;DHT22;65441;44.748;37.600;2023-04-03T13:16:59;12.30;84.74
76577;DHT22;65441;44.748;37.600;2023-04-03T13:19:32;12.43;84.55
76577;DHT22;65441;44.748;37.600;2023-04-03T13:22:04;12.25;85.32
76577;DHT22;65441;44.748;37.600;2023-04-03T13:24:38;12.44;86.00
76577;DHT22;65441;44.748;37.600;2023-04-03T13:27:07;12.53;84.61
76577;DHT22;65441;44.748;37.600;2023-04-03T13:29:40;12.52;84.19
76577;DHT22;65441;44.748;37.600;2023-04-03T13:32:18;12.30;85.18
76577;DHT22;65441;44.748;37.600;2023-04-03T13:34:49;12.22;85.96
76577;DHT22;65441;44.748;37.600;2023-04-03T13:37:21;12.50;84.76
76577;DHT22;65441;44.748;37.600;2023-04-03T13:40:00;12.33;85.42
76577;DHT22;65441;44.748;37.600;2023-04-03T13:42:32;12.16;86.78
76577;DHT22;65441;44.748;37.600;2023-04-03T13:45:18;12.11;87.16
76577;DHT22;65441;44.748;37.600;2023-04-03T13:47:49;12.04;87.02
76577;DHT22;65441;44.748;37.600;2023-04-03T13:50:22;12.17;87.22
76577;DHT22;65441;44.748;37.600;2023-04-03T13:52:55;12.10;87.18
76577;DHT22;65441;44.748;37.600;2023-04-03T13:55:30;11.88;88.00
76577;DHT22;65441;44.748;37.600;2023-04-03T13:58:01;11.64;89.77
76577;DHT22;65441;44.748;37.600;2023-04-03T14:00:35;11.59;89.18
76577;DHT22;65441;44.748;37.600;2023-04-03T14:03:13;11.58;89.89
76577;DHT22;65441;44.748;37.600;2023-04-03T14:05:44;11.64;89.72
76577;DHT22;65441;44.748;37.600;2023-04-03T14:08:13;11.63;88.96
76577;DHT22;65441;44.748;37.600;2023-04-03T14:10:43;11.69;89.12
76577;DHT22;65441;44.748;37.600;2023-04-03T14:13:14;11.42;89.49
76577;DHT22;65441;44.748;37.600;2023-04-03T14:15:43;11.48;90.08
76577;DHT22;65441;44.748;37.600;2023-04-03T14:18:13;11.57;89.59
76577;DHT22;65441;44.748;37.600;2023-04-03T14:20:48;11.71;88.96
76577;DHT22;65441;44.748;37.600;2023-04-03T14:23:17;11.55;89.25
76577;DHT22;65441;44.748;37.600;2023-04-03T14:25:46;11.62;88.86
76577;DHT22;65441;44.748;37.600;2023-04-03T14:28:18;11.59;88.58
76577;DHT22;65441;44.748;37.600;2023-04-03T14:30:49;11.40;89.63
76577;DHT22;65441;44.748;37.600;2023-04-03T14:33:20;11.33;89.18
76577;DHT22;65441;44.748;37.600;2023-04-03T14:35:51;11.47;89.00
76577;DHT22;65441;44.748;37.600;2023-04-03T14:38:23;11.44;88.84
76577;DHT22;65441;44.748;37.600;2023-04-03T14:40:54;11.37;89.42
76577;DHT22;65441;44.748;37.600;2023-04-03T14:43:23;11.27;89.32
76577;DHT22;65441;44.748;37.600;2023-04-03T14:45:53;11.36;89.19
76577;DHT22;65441;44.748;37.600;2023-04-03T14:48:25;11.33;89.29
76577;DHT22;65441;44.748;37.600;2023-04-03T14:50:56;11.48;88.89
76577;DHT22;65441;44.748;37.600;2023-04-03T14:53:26;11.38;89.18
76577;DHT22;65441;44.748;37.600;2023-04-03T14:55:56;11.64;88.38
76577;DHT22;65441;44.748;37.600;2023-04-03T14:58:27;11.67;88.32
76577;DHT22;65441;44.748;37.600;2023-04-03T15:00:56;11.69;88.23
76577;DHT22;65441;44.748;37.600;2023-04-03T15:03:25;11.77;87.79
76577;DHT22;65441;44.748;37.600;2023-04-03T15:05:55;11.84;87.41
76577;DHT22;65441;44.748;37.600;2023-04-03T15:08:27;11.63;88.27
76577;DHT22;65441;44.748;37.600;2023-04-03T15:10:58;11.70;88.62
76577;DHT22;65441;44.748;37.600;2023-04-03T15:13:28;11.57;88.81
76577;DHT22;65441;44.748;37.600;2023-04-03T15:15:57;11.55;88.96
76577;DHT22;65441;44.748;37.600;2023-04-03T15:18:28;11.48;89.07
76577;DHT22;65441;44.748;37.600;2023-04-03T15:21:00;11.60;88.68
76577;DHT22;65441;44.748;37.600;2023-04-03T15:23:29;11.76;88.58
76577;DHT22;65441;44.748;37.600;2023-04-03T15:25:58;11.70;89.06
76577;DHT22;65441;44.748;37.600;2023-04-03T15:28:29;11.69;88.60
76577;DHT22;65441;44.748;37.600;2023-04-03T15:30:59;11.58;88.78
76577;DHT22;65441;44.748;37.600;2023-04-03T15:33:28;11.63;88.59
76577;DHT22;65441;44.748;37.600;2023-04-03T15:35:59;11.49;88.92
76577;DHT22;65441;44.748;37.600;2023-04-03T15:38:28;11.43;89.44
76577;DHT22;65441;44.748;37.600;2023-04-03T15:40:57;11.54;88.47
76577;DHT22;65441;44.748;37.600;2023-04-03T15:43:26;11.49;89.23
76577;DHT22;65441;44.748;37.600;2023-04-03T15:45:57;11.48;89.61
76577;DHT22;65441;44.748;37.600;2023-04-03T15:48:27;11.56;89.42